createdAt,value
2023-09-26T00:02:26.533Z,97887.41
2023-09-26T00:04:53.140Z,97887.03
2023-09-26T00:07:19.764Z,97887.72
2023-09-26T00:09:46.646Z,97890.31
2023-09-26T00:12:13.202Z,97899.44
2023-09-26T00:14:39.785Z,97898.38
2023-09-26T00:17:06.557Z,97894.84
2023-09-26T00:19:33.212Z,97889.75
2023-09-26T00:21:59.761Z,97878.09
2023-09-26T00:24:26.382Z,97865.44
2023-09-26T00:26:52.896Z,97880.94
2023-09-26T00:29:19.552Z,97878.03
2023-09-26T00:31:46.122Z,97876.06
2023-09-26T00:34:13.529Z,97880.19
2023-09-26T00:36:40.145Z,97867.22
2023-09-26T00:39:06.984Z,97869.94
2023-09-26T00:41:34.502Z,97871.88
2023-09-26T00:44:01.180Z,97874.06
2023-09-26T00:46:29.476Z,97881.69
2023-09-26T00:48:57.051Z,97874.88
2023-09-26T00:51:23.556Z,97876.56
2023-09-26T00:53:50.447Z,97872.09
2023-09-26T00:56:17.426Z,97864.75
2023-09-26T00:58:44.822Z,97865.84
2023-09-26T01:01:11.842Z,97865.00
2023-09-26T01:03:39.298Z,97867.34
2023-09-26T01:06:06.419Z,97864.25
2023-09-26T01:08:33.347Z,97866.59
2023-09-26T01:10:59.951Z,97868.69
2023-09-26T01:13:26.532Z,97865.41
2023-09-26T01:15:53.459Z,97861.44
2023-09-26T01:18:24.328Z,97857.09
2023-09-26T01:20:51.986Z,97852.66
2023-09-26T01:23:24.055Z,97862.00
2023-09-26T01:25:50.685Z,97863.91
2023-09-26T01:28:18.232Z,97869.31
2023-09-26T01:30:44.863Z,97875.06
2023-09-26T01:33:13.998Z,97869.75
2023-09-26T01:35:40.548Z,97864.00
2023-09-26T01:38:07.182Z,97870.00
2023-09-26T01:40:33.753Z,97863.72
2023-09-26T01:43:00.301Z,97863.31
2023-09-26T01:45:26.854Z,97877.13
2023-09-26T01:47:53.498Z,97858.16
2023-09-26T01:50:21.973Z,97860.31
2023-09-26T01:52:49.245Z,97862.84
2023-09-26T01:55:21.171Z,97867.44
2023-09-26T01:57:48.978Z,97861.28
2023-09-26T02:00:16.300Z,97852.09
2023-09-26T02:02:45.524Z,97854.66
2023-09-26T02:05:14.395Z,97845.63
2023-09-26T02:07:41.014Z,97848.88
2023-09-26T02:10:08.869Z,97845.38
2023-09-26T02:12:37.394Z,97838.25
2023-09-26T02:15:06.613Z,97843.97
2023-09-26T02:17:36.846Z,97843.75
2023-09-26T02:20:07.100Z,97850.75
2023-09-26T02:22:35.977Z,97843.25
2023-09-26T02:25:02.501Z,97841.38
2023-09-26T02:27:29.150Z,97851.59
2023-09-26T02:29:55.733Z,97849.69
2023-09-26T02:32:22.646Z,97832.34
2023-09-26T02:34:49.103Z,97832.94
2023-09-26T02:37:15.648Z,97824.97
2023-09-26T02:39:42.337Z,97827.94
2023-09-26T02:42:08.761Z,97826.97
2023-09-26T02:44:36.276Z,97830.75
2023-09-26T02:47:02.761Z,97817.69
2023-09-26T02:49:29.436Z,97824.47
2023-09-26T02:51:56.029Z,97824.91
2023-09-26T02:54:22.589Z,97825.22
2023-09-26T02:56:49.300Z,97828.00
2023-09-26T02:59:15.729Z,97834.19
2023-09-26T03:01:42.286Z,97831.53
2023-09-26T03:04:08.924Z,97841.53
2023-09-26T03:06:35.853Z,97835.59
2023-09-26T03:09:02.358Z,97835.38
2023-09-26T03:11:30.602Z,97832.53
2023-09-26T03:13:57.173Z,97831.88
2023-09-26T03:16:23.949Z,97832.88
2023-09-26T03:18:55.032Z,97828.47
2023-09-26T03:21:22.440Z,97835.47
2023-09-26T03:23:50.142Z,97836.72
2023-09-26T03:26:16.779Z,97827.50
2023-09-26T03:28:43.369Z,97831.97
2023-09-26T03:31:10.245Z,97827.97
2023-09-26T03:33:37.070Z,97817.00
2023-09-26T03:36:04.610Z,97816.66
2023-09-26T03:38:31.940Z,97805.25
2023-09-26T03:40:59.750Z,97806.91
2023-09-26T03:43:30.115Z,97813.38
2023-09-26T03:46:04.349Z,97808.81
2023-09-26T03:48:32.074Z,97812.31
2023-09-26T03:51:12.079Z,97807.50
2023-09-26T03:53:40.013Z,97807.22
2023-09-26T03:56:06.961Z,97804.19
2023-09-26T03:58:34.073Z,97806.28
2023-09-26T04:01:14.635Z,97805.09
2023-09-26T04:03:43.760Z,97811.91
2023-09-26T04:06:10.782Z,97806.78
2023-09-26T04:08:37.322Z,97815.81
2023-09-26T04:11:03.986Z,97816.28
2023-09-26T04:13:30.586Z,97817.69
2023-09-26T04:16:00.011Z,97811.41
2023-09-26T04:18:26.972Z,97812.16
2023-09-26T04:20:53.548Z,97809.00
2023-09-26T04:23:20.037Z,97806.13
2023-09-26T04:25:46.678Z,97800.97
2023-09-26T04:28:13.439Z,97807.59
2023-09-26T04:30:40.783Z,97803.47
2023-09-26T04:33:09.483Z,97797.38
2023-09-26T04:35:37.350Z,97799.84
2023-09-26T04:38:05.251Z,97795.19
2023-09-26T04:40:32.202Z,97797.75
2023-09-26T04:43:06.507Z,97793.41
2023-09-26T04:45:33.778Z,97797.53
2023-09-26T04:48:01.761Z,97792.81
2023-09-26T04:50:29.751Z,97793.72
2023-09-26T04:52:57.561Z,97806.22
2023-09-26T04:55:24.481Z,97804.50
2023-09-26T04:57:51.095Z,97797.38
2023-09-26T05:00:18.681Z,97796.44
2023-09-26T05:02:46.763Z,97797.91
2023-09-26T05:05:13.828Z,97800.16
2023-09-26T05:07:44.183Z,97805.03
2023-09-26T05:10:12.993Z,97808.13
2023-09-26T05:12:41.832Z,97822.19
2023-09-26T05:15:16.311Z,97818.44
2023-09-26T05:17:46.766Z,97818.34
2023-09-26T05:20:13.467Z,97817.63
2023-09-26T05:22:42.885Z,97814.47
2023-09-26T05:25:09.997Z,97812.75
2023-09-26T05:27:38.380Z,97802.78
2023-09-26T05:30:07.005Z,97809.59
2023-09-26T05:32:33.743Z,97809.44
2023-09-26T05:35:00.470Z,97813.56
2023-09-26T05:37:27.433Z,97822.28
2023-09-26T05:39:54.195Z,97820.00
2023-09-26T05:42:20.731Z,97815.16
2023-09-26T05:44:47.235Z,97819.41
2023-09-26T05:47:13.874Z,97812.72
2023-09-26T05:49:40.539Z,97813.09
2023-09-26T05:52:07.137Z,97819.63
2023-09-26T05:54:34.503Z,97821.44
2023-09-26T05:57:04.206Z,97814.59
2023-09-26T05:59:30.981Z,97814.38
2023-09-26T06:01:57.582Z,97824.03
2023-09-26T06:04:24.338Z,97821.66
2023-09-26T06:06:51.058Z,97827.22
2023-09-26T06:09:17.520Z,97828.16
2023-09-26T06:11:44.204Z,97831.09
2023-09-26T06:14:10.693Z,97833.72
2023-09-26T06:16:37.224Z,97827.41
2023-09-26T06:19:03.917Z,97821.91
2023-09-26T06:21:30.470Z,97816.44
2023-09-26T06:23:57.094Z,97817.28
2023-09-26T06:26:24.229Z,97813.94
2023-09-26T06:28:50.819Z,97815.50
2023-09-26T06:31:17.651Z,97820.41
2023-09-26T06:33:44.436Z,97817.97
2023-09-26T06:36:12.851Z,97814.34
2023-09-26T06:38:39.376Z,97822.22
2023-09-26T06:41:07.692Z,97814.94
2023-09-26T06:43:34.514Z,97814.97
2023-09-26T06:46:09.340Z,97813.41
2023-09-26T06:48:39.207Z,97813.03
2023-09-26T06:51:06.618Z,97815.25
2023-09-26T06:53:34.679Z,97813.44
2023-09-26T06:56:10.229Z,97815.88
2023-09-26T06:58:38.085Z,97813.16
2023-09-26T07:01:12.844Z,97811.78
2023-09-26T07:03:39.394Z,97819.38
2023-09-26T07:06:11.130Z,97818.25
2023-09-26T07:08:43.089Z,97824.56
2023-09-26T07:11:10.417Z,97818.00
2023-09-26T07:13:48.737Z,97815.22
2023-09-26T07:16:16.568Z,97813.56
2023-09-26T07:18:43.137Z,97816.69
2023-09-26T07:21:10.723Z,97816.28
2023-09-26T07:23:38.195Z,97821.28
2023-09-26T07:26:18.512Z,97813.53
2023-09-26T07:28:45.866Z,97811.69
2023-09-26T07:31:13.951Z,97808.09
2023-09-26T07:33:40.932Z,97813.22
2023-09-26T07:36:08.338Z,97813.78
2023-09-26T07:38:35.241Z,97810.94
2023-09-26T07:41:02.425Z,97815.38
2023-09-26T07:43:34.158Z,97817.16
2023-09-26T07:46:08.681Z,97814.28
2023-09-26T07:48:36.209Z,97813.56
2023-09-26T07:51:03.652Z,97816.06
2023-09-26T07:53:30.328Z,97815.34
2023-09-26T07:55:57.590Z,97815.94
2023-09-26T07:58:24.837Z,97810.66
2023-09-26T08:00:53.495Z,97812.38
2023-09-26T08:03:20.125Z,97810.03
2023-09-26T08:05:46.669Z,97815.53
2023-09-26T08:08:13.382Z,97814.81
2023-09-26T08:10:40.126Z,97817.03
2023-09-26T08:13:07.756Z,97818.47
2023-09-26T08:15:37.709Z,97814.66
2023-09-26T08:18:05.024Z,97819.88
2023-09-26T08:20:32.342Z,97815.28
2023-09-26T08:22:58.907Z,97810.16
2023-09-26T08:25:26.534Z,97813.47
2023-09-26T08:27:53.185Z,97809.41
2023-09-26T08:30:19.819Z,97812.16
2023-09-26T08:32:46.341Z,97812.47
2023-09-26T08:35:12.899Z,97816.06
2023-09-26T08:37:41.573Z,97812.78
2023-09-26T08:40:12.675Z,97808.69
2023-09-26T08:42:43.753Z,97814.97
2023-09-26T08:45:11.094Z,97810.34
2023-09-26T08:47:41.056Z,97802.72
2023-09-26T08:50:08.296Z,97806.25
2023-09-26T08:52:35.374Z,97803.22
2023-09-26T08:55:03.063Z,97805.66
2023-09-26T08:57:30.922Z,97803.94
2023-09-26T09:00:01.854Z,97808.59
2023-09-26T09:02:29.960Z,97811.28
2023-09-26T09:04:56.515Z,97813.19
2023-09-26T09:07:23.529Z,97812.38
2023-09-26T09:10:05.747Z,97806.84
2023-09-26T09:12:32.422Z,97814.75
2023-09-26T09:14:58.903Z,97813.88
2023-09-26T09:17:25.576Z,97807.88
2023-09-26T09:19:53.787Z,97801.81
2023-09-26T09:22:22.990Z,97800.66
2023-09-26T09:24:57.819Z,97803.38
2023-09-26T09:27:35.915Z,97803.31
2023-09-26T09:30:07.141Z,97798.63
2023-09-26T09:32:33.776Z,97798.63
2023-09-26T09:35:00.442Z,97788.69
2023-09-26T09:37:27.860Z,97797.13
2023-09-26T09:39:54.812Z,97791.72
2023-09-26T09:42:23.444Z,97786.00
2023-09-26T09:44:50.196Z,97785.69
2023-09-26T09:47:22.927Z,97787.19
2023-09-26T09:49:50.452Z,97781.09
2023-09-26T09:52:20.089Z,97780.13
2023-09-26T09:54:47.966Z,97773.16
2023-09-26T09:57:16.551Z,97786.19
2023-09-26T09:59:45.225Z,97784.25
2023-09-26T10:02:16.700Z,97778.94
2023-09-26T10:04:56.776Z,97780.56
2023-09-26T10:07:28.789Z,97778.56
2023-09-26T10:09:55.915Z,97769.25
2023-09-26T10:12:24.287Z,97773.88
2023-09-26T10:14:50.913Z,97771.13
2023-09-26T10:17:18.690Z,97774.25
2023-09-26T10:19:55.843Z,97771.97
2023-09-26T10:22:35.668Z,97763.66
2023-09-26T10:25:03.591Z,97764.78
2023-09-26T10:27:43.396Z,97764.78
2023-09-26T10:30:19.744Z,97761.13
2023-09-26T10:32:47.257Z,97755.53
2023-09-26T10:35:17.528Z,97766.41
2023-09-26T10:37:53.596Z,97759.59
2023-09-26T10:40:20.265Z,97751.56
2023-09-26T10:45:17.929Z,97746.84
2023-09-26T10:47:54.530Z,97744.53
2023-09-26T10:50:33.465Z,97741.78
2023-09-26T10:53:00.660Z,97742.22
2023-09-26T10:55:27.243Z,97739.47
2023-09-26T10:57:53.829Z,97746.03
2023-09-26T11:00:20.773Z,97741.16
2023-09-26T11:02:49.100Z,97738.84
2023-09-26T11:05:16.949Z,97734.06
2023-09-26T11:07:48.280Z,97739.31
2023-09-26T11:10:16.108Z,97732.94
2023-09-26T11:12:44.618Z,97724.00
2023-09-26T11:15:11.392Z,97725.72
2023-09-26T11:17:38.738Z,97731.00
2023-09-26T11:20:07.131Z,97731.25
2023-09-26T11:22:47.773Z,97729.22
2023-09-26T11:25:15.019Z,97730.03
2023-09-26T11:27:49.173Z,97723.03
2023-09-26T11:30:21.574Z,97730.66
2023-09-26T11:32:51.686Z,97728.00
2023-09-26T11:35:19.686Z,97728.72
2023-09-26T11:37:53.856Z,97731.16
2023-09-26T11:40:27.957Z,97724.66
2023-09-26T11:42:58.758Z,97720.09
2023-09-26T11:45:27.536Z,97721.09
2023-09-26T11:47:55.384Z,97715.78
2023-09-26T11:50:24.146Z,97722.88
2023-09-26T11:52:51.865Z,97713.50
2023-09-26T11:55:19.184Z,97715.06
2023-09-26T11:57:46.700Z,97704.66
2023-09-26T12:00:17.107Z,97709.19
2023-09-26T12:02:45.293Z,97703.88
2023-09-26T12:05:12.844Z,97707.31
2023-09-26T12:07:42.719Z,97702.50
2023-09-26T12:10:10.564Z,97703.53
2023-09-26T12:12:38.445Z,97692.22
2023-09-26T12:15:28.688Z,97696.03
2023-09-26T12:17:57.677Z,97693.19
2023-09-26T12:20:25.949Z,97686.31
2023-09-26T12:22:54.479Z,97695.13
2023-09-26T12:25:25.801Z,97685.78
2023-09-26T12:27:53.388Z,97683.19
2023-09-26T12:30:21.048Z,97676.69
2023-09-26T12:32:48.626Z,97680.94
2023-09-26T12:35:15.303Z,97677.06
2023-09-26T12:37:44.637Z,97673.78
2023-09-26T12:40:15.920Z,97673.97
2023-09-26T12:42:42.957Z,97669.78
2023-09-26T12:45:10.405Z,97671.69
2023-09-26T12:47:37.370Z,97677.56
2023-09-26T12:50:08.662Z,97675.31
2023-09-26T12:52:36.355Z,97676.97
2023-09-26T12:55:04.612Z,97674.06
2023-09-26T12:57:34.609Z,97671.44
2023-09-26T13:00:02.083Z,97678.75
2023-09-26T13:02:28.976Z,97675.69
2023-09-26T13:04:56.863Z,97671.47
2023-09-26T13:07:23.544Z,97670.97
2023-09-26T13:09:51.565Z,97666.81
2023-09-26T13:12:18.384Z,97664.03
2023-09-26T13:14:44.957Z,97660.28
2023-09-26T13:17:14.758Z,97662.41
2023-09-26T13:19:42.287Z,97662.75
2023-09-26T13:22:10.405Z,97660.13
2023-09-26T13:24:37.068Z,97661.59
2023-09-26T13:27:06.983Z,97656.53
2023-09-26T13:29:34.393Z,97657.50
2023-09-26T13:32:02.283Z,97659.34
2023-09-26T13:34:30.549Z,97655.97
2023-09-26T13:36:57.095Z,97660.72
2023-09-26T13:39:23.717Z,97654.34
2023-09-26T13:41:50.356Z,97654.25
2023-09-26T13:44:16.937Z,97654.69
2023-09-26T13:46:43.837Z,97649.69
2023-09-26T13:49:10.618Z,97654.75
2023-09-26T13:51:37.098Z,97648.78
2023-09-26T13:54:04.182Z,97663.63
2023-09-26T13:56:30.625Z,97658.28
2023-09-26T13:58:57.214Z,97657.00
2023-09-26T14:01:24.177Z,97659.78
2023-09-26T14:03:50.855Z,97653.38
2023-09-26T14:06:17.420Z,97658.34
2023-09-26T14:08:44.708Z,97657.56
2023-09-26T14:11:14.356Z,97658.97
2023-09-26T14:13:41.232Z,97660.94
2023-09-26T14:16:07.993Z,97660.38
2023-09-26T14:18:36.355Z,97650.28
2023-09-26T14:21:04.614Z,97655.78
2023-09-26T14:23:31.030Z,97653.16
2023-09-26T14:25:59.394Z,97653.47
2023-09-26T14:28:26.347Z,97651.59
2023-09-26T14:30:54.602Z,97653.59
2023-09-26T14:33:21.682Z,97652.00
2023-09-26T14:35:48.676Z,97636.31
2023-09-26T14:38:15.313Z,97644.31
2023-09-26T14:40:41.899Z,97648.34
2023-09-26T14:43:08.813Z,97641.72
2023-09-26T14:45:39.672Z,97653.22
2023-09-26T14:48:10.156Z,97640.69
2023-09-26T14:50:36.797Z,97646.13
2023-09-26T14:53:03.468Z,97650.66
2023-09-26T14:55:30.185Z,97642.09
2023-09-26T14:57:56.909Z,97653.44
2023-09-26T15:00:23.505Z,97653.22
2023-09-26T15:02:50.240Z,97656.72
2023-09-26T15:05:17.185Z,97654.16
2023-09-26T15:07:43.768Z,97652.50
2023-09-26T15:10:11.119Z,97655.16
2023-09-26T15:12:38.770Z,97647.25
2023-09-26T15:15:06.125Z,97640.50
2023-09-26T15:17:32.759Z,97651.47
2023-09-26T15:20:00.046Z,97647.16
2023-09-26T15:22:26.557Z,97648.84
2023-09-26T15:24:53.062Z,97652.44
2023-09-26T15:27:19.501Z,97645.13
2023-09-26T15:29:46.054Z,97652.75
2023-09-26T15:32:12.687Z,97648.38
2023-09-26T15:34:39.292Z,97651.19
2023-09-26T15:37:05.939Z,97642.44
2023-09-26T15:39:33.028Z,97639.53
2023-09-26T15:41:59.769Z,97641.19
2023-09-26T15:44:26.366Z,97640.84
2023-09-26T15:46:53.750Z,97641.91
2023-09-26T15:49:20.602Z,97633.63
2023-09-26T15:51:47.113Z,97633.16
2023-09-26T15:54:13.557Z,97632.41
2023-09-26T15:56:40.151Z,97639.47
2023-09-26T15:59:07.423Z,97632.84
2023-09-26T16:01:34.368Z,97626.22
2023-09-26T16:04:01.077Z,97627.09
2023-09-26T16:06:29.203Z,97622.16
2023-09-26T16:08:57.572Z,97620.59
2023-09-26T16:11:24.446Z,97629.91
2023-09-26T16:13:51.308Z,97628.81
2023-09-26T16:16:17.835Z,97628.31
2023-09-26T16:18:44.397Z,97628.47
2023-09-26T16:21:11.136Z,97633.63
2023-09-26T16:23:37.786Z,97623.06
2023-09-26T16:26:04.530Z,97628.22
2023-09-26T16:28:31.917Z,97627.22
2023-09-26T16:30:58.391Z,97630.00
2023-09-26T16:33:24.909Z,97627.91
2023-09-26T16:35:51.477Z,97634.34
2023-09-26T16:38:18.023Z,97640.88
2023-09-26T16:40:44.677Z,97650.13
2023-09-26T16:43:12.084Z,97652.06
2023-09-26T16:45:38.633Z,97649.44
2023-09-26T16:48:07.077Z,97641.31
2023-09-26T16:50:35.045Z,97648.94
2023-09-26T16:53:01.828Z,97661.66
2023-09-26T16:55:28.421Z,97655.47
2023-09-26T16:57:54.939Z,97659.06
2023-09-26T17:00:23.627Z,97663.38
2023-09-26T17:02:50.343Z,97660.38
2023-09-26T17:05:18.793Z,97672.03
2023-09-26T17:07:45.563Z,97668.06
2023-09-26T17:10:12.578Z,97663.91
2023-09-26T17:12:39.019Z,97666.00
2023-09-26T17:15:06.021Z,97680.38
2023-09-26T17:17:32.707Z,97681.63
2023-09-26T17:20:05.239Z,97672.44
2023-09-26T17:22:33.366Z,97675.03
2023-09-26T17:24:59.938Z,97680.78
2023-09-26T17:27:26.447Z,97684.66
2023-09-26T17:29:53.129Z,97679.75
2023-09-26T17:32:19.652Z,97682.50
2023-09-26T17:34:46.661Z,97688.00
2023-09-26T17:37:13.125Z,97680.38
2023-09-26T17:39:39.975Z,97687.53
2023-09-26T17:42:06.497Z,97687.28
2023-09-26T17:44:33.013Z,97694.66
2023-09-26T17:46:59.813Z,97693.31
2023-09-26T17:49:26.362Z,97698.50
2023-09-26T17:51:53.281Z,97695.25
2023-09-26T17:54:19.932Z,97697.44
2023-09-26T17:56:46.548Z,97696.88
2023-09-26T17:59:13.146Z,97695.50
2023-09-26T18:01:40.067Z,97703.13
2023-09-26T18:04:07.063Z,97702.00
2023-09-26T18:06:33.553Z,97697.16
2023-09-26T18:09:00.050Z,97704.78
2023-09-26T18:11:26.520Z,97705.88
2023-09-26T18:13:53.057Z,97705.59
2023-09-26T18:16:19.682Z,97706.16
2023-09-26T18:18:46.252Z,97704.50
2023-09-26T18:21:12.693Z,97707.78
2023-09-26T18:23:39.291Z,97708.59
2023-09-26T18:26:07.569Z,97707.22
2023-09-26T18:28:35.327Z,97711.88
2023-09-26T18:31:02.054Z,97723.03
2023-09-26T18:33:28.576Z,97721.91
2023-09-26T18:35:55.045Z,97719.94
2023-09-26T18:38:21.519Z,97725.63
2023-09-26T18:40:48.845Z,97733.22
2023-09-26T18:43:15.308Z,97729.91
2023-09-26T18:45:43.115Z,97738.28
2023-09-26T18:48:09.946Z,97733.06
2023-09-26T18:50:36.896Z,97732.34
2023-09-26T18:53:03.684Z,97733.44
2023-09-26T18:55:30.122Z,97739.94
2023-09-26T18:57:56.757Z,97730.97
2023-09-26T19:00:23.579Z,97739.59
2023-09-26T19:02:50.908Z,97739.19
2023-09-26T19:05:17.813Z,97736.44
2023-09-26T19:07:44.642Z,97741.25
2023-09-26T19:10:12.416Z,97742.28
2023-09-26T19:12:39.043Z,97735.16
2023-09-26T19:15:07.228Z,97740.06
2023-09-26T19:17:33.731Z,97733.53
2023-09-26T19:20:00.413Z,97731.88
2023-09-26T19:22:26.883Z,97744.00
2023-09-26T19:24:53.428Z,97742.13
2023-09-26T19:27:19.943Z,97739.97
2023-09-26T19:29:46.511Z,97738.56
2023-09-26T19:32:13.058Z,97739.88
2023-09-26T19:34:41.257Z,97748.31
2023-09-26T19:37:08.223Z,97731.97
2023-09-26T19:39:34.663Z,97740.16
2023-09-26T19:42:01.160Z,97740.03
2023-09-26T19:44:27.691Z,97746.03
2023-09-26T19:46:54.320Z,97749.25
2023-09-26T19:49:20.821Z,97750.91
2023-09-26T19:51:47.354Z,97759.31
2023-09-26T19:54:13.923Z,97755.69
2023-09-26T19:56:40.431Z,97767.41
2023-09-26T19:59:07.380Z,97769.72
2023-09-26T20:01:35.369Z,97754.53
2023-09-26T20:04:01.954Z,97759.25
2023-09-26T20:06:28.437Z,97764.78
2023-09-26T20:08:58.465Z,97763.63
2023-09-26T20:11:25.276Z,97758.94
2023-09-26T20:13:51.831Z,97764.28
2023-09-26T20:16:18.428Z,97763.03
2023-09-26T20:18:45.029Z,97762.53
2023-09-26T20:21:12.145Z,97758.44
2023-09-26T20:23:38.758Z,97768.31
2023-09-26T20:26:05.356Z,97756.09
2023-09-26T20:28:31.900Z,97765.47
2023-09-26T20:30:58.592Z,97753.81
2023-09-26T20:33:27.280Z,97755.31
2023-09-26T20:36:00.819Z,97763.78
2023-09-26T20:38:27.786Z,97768.88
2023-09-26T20:41:05.045Z,97759.34
2023-09-26T20:43:32.442Z,97763.16
2023-09-26T20:45:59.743Z,97763.94
2023-09-26T20:48:27.275Z,97765.16
2023-09-26T20:50:54.387Z,97764.47
2023-09-26T20:53:20.936Z,97762.38
2023-09-26T20:55:48.926Z,97762.84
2023-09-26T20:58:16.258Z,97756.63
2023-09-26T21:00:42.784Z,97770.81
2023-09-26T21:03:09.555Z,97770.72
2023-09-26T21:05:37.991Z,97767.44
2023-09-26T21:08:08.212Z,97762.69
2023-09-26T21:10:34.828Z,97759.25
2023-09-26T21:13:01.365Z,97760.56
2023-09-26T21:15:27.881Z,97769.94
2023-09-26T21:17:54.447Z,97764.06
2023-09-26T21:20:21.333Z,97766.72
2023-09-26T21:22:47.853Z,97772.81
2023-09-26T21:25:14.521Z,97765.75
2023-09-26T21:27:41.313Z,97761.66
2023-09-26T21:30:08.529Z,97763.16
2023-09-26T21:32:35.625Z,97763.16
2023-09-26T21:35:02.345Z,97763.63
2023-09-26T21:37:28.870Z,97768.56
2023-09-26T21:39:55.809Z,97772.19
2023-09-26T21:42:22.343Z,97771.84
2023-09-26T21:44:48.853Z,97766.34
2023-09-26T21:47:15.530Z,97774.63
2023-09-26T21:49:42.087Z,97774.31
2023-09-26T21:52:08.625Z,97774.63
2023-09-26T21:54:35.346Z,97768.16
2023-09-26T21:57:01.810Z,97763.28
2023-09-26T21:59:29.408Z,97766.75
2023-09-26T22:01:55.972Z,97760.31
2023-09-26T22:04:22.547Z,97760.84
2023-09-26T22:06:49.035Z,97759.84
2023-09-26T22:09:15.643Z,97762.97
2023-09-26T22:11:42.161Z,97755.25
2023-09-26T22:14:10.553Z,97764.78
2023-09-26T22:16:37.346Z,97767.81
2023-09-26T22:19:04.142Z,97763.22
2023-09-26T22:21:30.699Z,97768.47
2023-09-26T22:23:57.134Z,97764.13
2023-09-26T22:26:23.680Z,97760.81
2023-09-26T22:28:50.318Z,97752.75
2023-09-26T22:31:16.879Z,97754.78
2023-09-26T22:33:43.920Z,97750.94
2023-09-26T22:36:10.403Z,97758.53
2023-09-26T22:38:37.070Z,97751.78
2023-09-26T22:41:03.929Z,97742.50
2023-09-26T22:43:30.530Z,97746.19
2023-09-26T22:45:57.143Z,97751.78
2023-09-26T22:48:23.700Z,97747.28
2023-09-26T22:50:50.210Z,97743.69
2023-09-26T22:53:16.752Z,97743.34
2023-09-26T22:55:47.407Z,97742.44
2023-09-26T22:58:13.943Z,97738.97
2023-09-26T23:00:40.712Z,97734.56
2023-09-26T23:03:07.919Z,97734.06
2023-09-26T23:05:37.684Z,97736.88
2023-09-26T23:08:08.437Z,97726.16
2023-09-26T23:10:36.495Z,97723.88
2023-09-26T23:13:03.361Z,97712.63
2023-09-26T23:15:29.952Z,97717.28
2023-09-26T23:17:56.565Z,97706.63
2023-09-26T23:20:23.200Z,97708.75
2023-09-26T23:22:49.748Z,97711.03
2023-09-26T23:25:16.201Z,97710.31
2023-09-26T23:27:44.330Z,97709.75
2023-09-26T23:30:12.768Z,97715.41
2023-09-26T23:32:42.220Z,97725.44
2023-09-26T23:35:10.864Z,97723.72
2023-09-26T23:37:39.070Z,97716.53
2023-09-26T23:40:07.575Z,97732.16
2023-09-26T23:42:35.447Z,97723.97
2023-09-26T23:45:02.095Z,97739.06
2023-09-26T23:47:28.684Z,97740.00
2023-09-26T23:49:55.344Z,97744.81
2023-09-26T23:52:24.498Z,97750.84
2023-09-26T23:54:50.981Z,97753.47
2023-09-26T23:57:17.587Z,97751.75
2023-09-26T23:59:44.229Z,97740.63
